MCI weather

Kansas City International Airport
Kansas City, Missouri, United States

Public forecast

Using degrees Fahrenheit for public forecast. Weather courtesy of forecast.io.

Current aviation weather report (METAR) for Kansas City International Airport

Retrieved 2019/10/16 19:53 UTC (37 minutes ago):

KMCI 161953Z 32004KT 10SM SCT035 BKN250 13/03 A3016 RMK AO2 SLP215 T01280033

Aviation forecast (TAF) for Kansas City International Airport

Retrieved 2019/10/16 18:22 UTC (2 hours ago):

TAF KMCI 161720Z 1618/1718 33010KT P6SM BKN025 FM161930 30008KT P6SM SKC FM170300 18005KT P6SM SKC